Brandon, Florida
Current Conditions -  °F | °C
As of 4:35 PM on Wednesday 17 Dec 2014 (Local Time) from KVDF Reporting Station
Clear Clear  
Wind Chill: 72°   Ceiling: Unl
Heat Index: 72°   Visibility: 10mi
Dew Point: 46°   Wind: 7mph
Humidity: 41%   Direction: 310°NW
Pressure: 30.13"   Gusts: NA
Location:  27.94°N, 82.32°W
Report Text: KVDF 172135Z AUTO 31006KT 10SM CLR 22/08 A3013 RMK AO2
Loading
Personal Weather Stations






























Interactive Weather Map New forecast layout! Learn more

10-Day Weather Forecast

Advertisements
Track Severe Weather on mobile